»·PEaware :: N2612J KAPV-KBFL

N2612J :: KAPV-KBFL

FLIGHT INFORMATION

Flight Status: Arrived
Operator: Privately registered:
United States
More flights under this callsign
Pilot: Andrew F. (4171)
Aircraft: DEHAVILLAND DH-6 TWIN OTTER
(DHC6)
More flights by this aircraft type
Origin: KAPV Apple Valley
United States
Destination: KBFL Meadows
United States
More flights between these airports :: More routes between these airports
Route: +EXCON1 EXCON V12 PMD V197 AMONT
File this flight plan on PilotEdge
Remarks:
Altitude:
(Current/Filed)
1,000ft
Speed:
(Current/Filed)
150kts
Departed: 15-Jul-15 03:57 PM
Arrived: 15-Jul-15 04:50 PM
Distance/Time
Traveled:
105nm/0:52
Distance/Time
To Go:
Arrived

Flight Plot

Page will automatically refresh every two minutes.


Map Options




Map Legend


Flown Route
Filed Route
Departure Airport
Arrival Airport
Navaid (VOR, NDB)
Fix

Horizontal Profiles

Position Reports

Time Latitude Longitude Heading Altitude Ground
Speed
15-Jul-15 15:34 34.574168 -117.189908 177 3071ft 0kts
15-Jul-15 15:35 34.574168 -117.189908 177 3071ft 0kts
15-Jul-15 15:36 34.574168 -117.189908 177 3071ft 0kts
15-Jul-15 15:37 34.574168 -117.189908 177 3071ft 0kts
15-Jul-15 15:38 34.574168 -117.189908 177 3071ft 0kts
15-Jul-15 15:39 34.574168 -117.189908 177 3071ft 0kts
15-Jul-15 15:40 34.574168 -117.189908 177 3071ft 0kts
15-Jul-15 15:41 34.574168 -117.189908 177 3071ft 0kts
15-Jul-15 15:42 34.574168 -117.189908 177 3071ft 0kts
15-Jul-15 15:43 34.574149 -117.189907 176 3071ft 0kts
15-Jul-15 15:44 34.574408 -117.190284 91 3071ft 0kts
15-Jul-15 15:45 34.574408 -117.190283 91 3071ft 0kts
15-Jul-15 15:46 34.574408 -117.190283 91 3071ft 0kts
15-Jul-15 15:47 34.574408 -117.190282 91 3071ft 0kts
15-Jul-15 15:48 34.574408 -117.190281 91 3071ft 0kts
15-Jul-15 15:49 34.574408 -117.190281 91 3071ft 0kts
15-Jul-15 15:50 34.574402 -117.189965 90 3071ft 5kts
15-Jul-15 15:51 34.573725 -117.188437 192 3071ft 5kts
15-Jul-15 15:52 34.571529 -117.189125 195 3071ft 16kts
15-Jul-15 15:53 34.570788 -117.189112 112 3071ft 4kts
15-Jul-15 15:54 34.570777 -117.189078 110 3071ft 0kts
15-Jul-15 15:55 34.570747 -117.188978 109 3071ft 4kts
15-Jul-15 15:56 34.577568 -117.186032 15 3071ft 96kts
15-Jul-15 15:57 34.610235 -117.176220 0 3749ft 127kts
15-Jul-15 15:58 34.647979 -117.180588 349 4512ft 128kts
15-Jul-15 15:59 34.680831 -117.183938 355 5377ft 124kts
15-Jul-15 16:00 34.713164 -117.189823 330 6257ft 117kts
15-Jul-15 16:01 34.719495 -117.234402 259 7284ft 114kts
15-Jul-15 16:02 34.716155 -117.269849 257 8099ft 104kts
15-Jul-15 16:03 34.712820 -117.302179 256 8568ft 106kts
15-Jul-15 16:04 34.708809 -117.340468 257 9406ft 106kts
15-Jul-15 16:05 34.704852 -117.378277 258 9971ft 127kts
15-Jul-15 16:06 34.700139 -117.422409 258 9951ft 133kts
15-Jul-15 16:07 34.695580 -117.466143 258 9984ft 130kts
15-Jul-15 16:08 34.690545 -117.514414 259 9970ft 145kts
15-Jul-15 16:09 34.685358 -117.564061 259 9968ft 147kts
15-Jul-15 16:10 34.679921 -117.614776 258 9927ft 143kts
15-Jul-15 16:11 34.675000 -117.660598 258 9959ft 134kts
15-Jul-15 16:12 34.669738 -117.709225 259 9945ft 147kts
15-Jul-15 16:13 34.664346 -117.759771 259 9942ft 148kts
15-Jul-15 16:14 34.658890 -117.810483 260 9939ft 148kts
15-Jul-15 16:15 34.653563 -117.860384 258 9976ft 141kts
15-Jul-15 16:16 34.648544 -117.906266 258 10012ft 136kts
15-Jul-15 16:17 34.643152 -117.955075 259 9995ft 145kts
15-Jul-15 16:18 34.637820 -118.003485 260 10012ft 143kts
15-Jul-15 16:19 34.632415 -118.053101 262 10008ft 146kts
15-Jul-15 16:20 34.654732 -118.094545 311 10003ft 148kts
15-Jul-15 16:21 34.683194 -118.131208 310 10011ft 146kts
15-Jul-15 16:22 34.711670 -118.168322 310 10009ft 148kts
15-Jul-15 16:23 34.740394 -118.205824 310 10005ft 148kts
15-Jul-15 16:24 34.768698 -118.242774 311 10015ft 147kts
15-Jul-15 16:25 34.797248 -118.280088 310 10021ft 149kts
15-Jul-15 16:26 34.826005 -118.317699 311 10026ft 147kts
15-Jul-15 16:27 34.854091 -118.354047 311 10051ft 145kts
15-Jul-15 16:28 34.882564 -118.391418 310 10061ft 149kts
15-Jul-15 16:29 34.911184 -118.429018 311 10049ft 145kts
15-Jul-15 16:30 34.937053 -118.463057 310 10184ft 130kts
15-Jul-15 16:31 34.966802 -118.497584 321 9666ft 167kts
15-Jul-15 16:32 35.003782 -118.531391 322 9195ft 156kts
15-Jul-15 16:33 35.036772 -118.560891 322 9207ft 142kts
15-Jul-15 16:34 35.061254 -118.596408 273 9091ft 146kts
15-Jul-15 16:35 35.064283 -118.650774 272 8254ft 170kts
15-Jul-15 16:36 35.076797 -118.707721 292 7392ft 176kts
15-Jul-15 16:37 35.095001 -118.759347 296 7188ft 155kts
15-Jul-15 16:38 35.127869 -118.793193 322 7180ft 154kts
15-Jul-15 16:39 35.163103 -118.824946 322 7099ft 151kts
15-Jul-15 16:40 35.198648 -118.849244 342 6881ft 155kts
15-Jul-15 16:41 35.243678 -118.866366 342 5920ft 176kts
15-Jul-15 16:42 35.290951 -118.885248 329 4930ft 179kts
15-Jul-15 16:43 35.326111 -118.927370 315 3976ft 178kts
15-Jul-15 16:44 35.357615 -118.964663 315 3091ft 122kts
15-Jul-15 16:45 35.378153 -118.989338 313 3040ft 103kts
15-Jul-15 16:46 35.398722 -119.013476 311 1556ft 88kts
15-Jul-15 16:47 35.414288 -119.032186 311 971ft 74kts
15-Jul-15 16:48 35.428728 -119.049891 310 641ft 67kts
15-Jul-15 16:49 35.436206 -119.057869 53 516ft 5kts
15-Jul-15 16:50 35.436479 -119.057066 103 516ft 7kts
15-Jul-15 16:51 35.433922 -119.053840 135 516ft 4kts
15-Jul-15 16:52 35.431230 -119.050647 135 516ft 26kts
15-Jul-15 16:53 35.431456 -119.047370 45 516ft 2kts
15-Jul-15 16:54 35.431535 -119.047274 44 516ft 0kts
15-Jul-15 16:55 35.431535 -119.047274 44 516ft 0kts
15-Jul-15 16:56 35.431535 -119.047274 44 516ft 0kts
15-Jul-15 16:57 35.431535 -119.047274 44 516ft 0kts
15-Jul-15 16:58 35.431535 -119.047274 44 516ft 0kts

Navigation Log

Ident Type
Flight plan parsing failed, navigation log unavailable